Time;durP1;ratioP1;P1;durP2;ratioP2;P2;SDS_P1;SDS_P2;PMS_P1;PMS_P2;Temp;Humidity;BMP_temperature;BMP_pressure;BME280_temperature;BME280_humidity;BME280_pressure;Samples;Min_cycle;Max_cycle;Signal;HPM_P1;HPM_P2
2021/06/22 00:00:25;;;;;;;14.88;9.05;;;;;;;22.61;67.40;100206.50;5061805;28;20049;-60
2021/06/22 00:02:52;;;;;;;15.43;8.77;;;;;;;22.85;66.72;100255.09;5061844;28;20033;-60
2021/06/22 00:05:19;;;;;;;18.40;8.90;;;;;;;22.78;67.65;100250.31;5061836;28;20056;-60
2021/06/22 00:07:51;;;;;;;16.75;9.05;;;;;;;22.75;67.22;100246.91;5061909;28;20045;-60
2021/06/22 00:10:20;;;;;;;16.30;8.80;;;;;;;22.49;67.40;100203.69;5061786;28;20049;-60
2021/06/22 00:12:46;;;;;;;14.88;8.50;;;;;;;22.85;67.35;100254.28;5065637;28;20052;-59
2021/06/22 00:15:14;;;;;;;14.75;9.35;;;;;;;22.56;67.33;100219.97;5065505;28;20079;-60
2021/06/22 00:17:41;;;;;;;14.93;9.15;;;;;;;22.73;67.32;100259.38;5065552;28;20037;-60
2021/06/22 00:20:08;;;;;;;13.98;9.02;;;;;;;22.73;67.71;100262.03;5065582;28;20055;-60
2021/06/22 00:22:34;;;;;;;14.98;9.05;;;;;;;22.67;67.81;100264.19;5065465;28;20048;-60
2021/06/22 00:25:00;;;;;;;17.75;9.60;;;;;;;22.57;67.96;100267.41;5065386;28;20044;-60
2021/06/22 00:27:26;;;;;;;13.10;9.10;;;;;;;22.57;67.88;100263.91;5065469;28;20044;-61
2021/06/22 00:29:52;;;;;;;13.32;9.85;;;;;;;22.58;67.77;100261.19;5064126;28;20075;-61
2021/06/22 00:32:18;;;;;;;19.45;9.27;;;;;;;22.58;68.04;100266.47;5065480;28;20029;-60
2021/06/22 00:34:47;;;;;;;15.15;9.65;;;;;;;22.51;68.45;100267.78;5065303;28;20040;-60
2021/06/22 00:37:15;;;;;;;16.85;9.30;;;;;;;22.46;68.64;100267.25;5065361;28;20048;-59
2021/06/22 00:39:42;;;;;;;13.70;8.77;;;;;;;22.45;68.33;100256.78;5064659;28;20052;-60
2021/06/22 00:42:09;;;;;;;10.77;9.00;;;;;;;22.49;68.47;100274.97;5065151;28;20067;-60
2021/06/22 00:44:52;;;;;;;15.02;8.90;;;;;;;22.51;68.76;100269.59;5064940;28;20055;-60
2021/06/22 00:47:19;;;;;;;15.80;10.15;;;;;;;22.48;68.08;100261.84;5065132;28;20071;-60
2021/06/22 00:49:51;;;;;;;20.83;9.80;;;;;;;22.51;68.05;100267.78;5074490;28;20379;-60
2021/06/22 00:52:20;;;;;;;17.55;9.57;;;;;;;22.53;68.76;100275.59;5084845;28;20048;-60
2021/06/22 00:54:45;;;;;;;13.85;9.73;;;;;;;22.56;68.33;100263.06;5084854;28;20036;-60
2021/06/22 00:57:11;;;;;;;16.33;9.48;;;;;;;22.56;68.70;100270.13;5084737;28;20340;-60
2021/06/22 00:59:38;;;;;;;19.00;8.77;;;;;;;22.53;68.35;100273.84;5076270;28;20047;-60
2021/06/22 01:02:05;;;;;;;13.75;9.25;;;;;;;22.17;69.04;100232.03;5064679;28;20044;-60
2021/06/22 01:04:32;;;;;;;14.45;9.07;;;;;;;22.49;68.99;100268.81;5064619;28;20135;-60
2021/06/22 01:07:00;;;;;;;16.17;8.63;;;;;;;22.45;68.73;100278.72;5064658;28;20036;-60
2021/06/22 01:09:28;;;;;;;17.25;9.05;;;;;;;22.41;69.05;100283.34;5064485;28;20044;-60
2021/06/22 01:11:55;;;;;;;18.23;9.30;;;;;;;22.42;69.08;100284.19;5064646;28;20056;-61
2021/06/22 01:14:21;;;;;;;14.52;8.77;;;;;;;22.34;69.01;100255.63;5064346;28;20064;-61
2021/06/22 01:16:47;;;;;;;17.40;9.75;;;;;;;22.43;68.92;100277.13;5064325;28;20067;-61
2021/06/22 01:19:14;;;;;;;17.52;8.77;;;;;;;22.38;68.95;100266.84;5064362;28;20013;-62
2021/06/22 01:21:41;;;;;;;17.33;9.10;;;;;;;22.36;69.04;100272.22;5064047;28;20041;-61
2021/06/22 01:24:15;;;;;;;19.45;9.77;;;;;;;22.39;69.48;100273.84;5063492;28;20041;-60
2021/06/22 01:26:52;;;;;;;21.20;10.00;;;;;;;22.39;69.94;100276.47;5063181;28;20347;-60
2021/06/22 01:29:18;;;;;;;16.30;9.80;;;;;;;22.19;70.16;100277.63;5064025;28;20060;-60
2021/06/22 01:31:46;;;;;;;15.05;10.15;;;;;;;22.19;70.11;100272.34;5064030;28;20274;-60
2021/06/22 01:34:12;;;;;;;20.60;9.38;;;;;;;22.25;70.13;100277.28;5064065;28;20116;-60
2021/06/22 01:36:39;;;;;;;20.10;9.93;;;;;;;22.27;69.98;100279.81;5063872;28;20052;-59
2021/06/22 01:39:11;;;;;;;18.95;9.50;;;;;;;22.25;70.25;100282.56;5064198;28;20056;-60
2021/06/22 01:41:37;;;;;;;19.20;9.85;;;;;;;22.26;70.38;100283.41;5063771;28;20060;-60
2021/06/22 01:44:03;;;;;;;15.63;10.23;;;;;;;22.29;69.83;100283.19;5063977;28;20053;-59
2021/06/22 01:46:29;;;;;;;14.93;9.48;;;;;;;22.29;70.22;100291.13;5063859;28;20045;-60
2021/06/22 01:48:55;;;;;;;20.52;9.50;;;;;;;22.32;70.36;100290.94;5063770;28;20062;-60
2021/06/22 01:51:21;;;;;;;14.30;8.80;;;;;;;22.36;70.12;100293.34;5063678;28;20021;-60
2021/06/22 01:53:55;;;;;;;16.50;9.85;;;;;;;22.37;70.77;100291.53;5063642;28;20056;-61
2021/06/22 01:56:22;;;;;;;15.90;9.70;;;;;;;22.30;70.60;100288.38;5063597;28;20048;-61
2021/06/22 01:58:48;;;;;;;14.10;9.45;;;;;;;22.36;70.42;100298.63;5063432;28;20055;-61
2021/06/22 02:01:14;;;;;;;17.95;9.52;;;;;;;22.41;70.47;100304.44;5063583;28;20267;-61
2021/06/22 02:03:40;;;;;;;14.35;9.63;;;;;;;22.41;70.41;100299.16;5079065;28;20025;-61
2021/06/22 02:06:06;;;;;;;13.75;9.20;;;;;;;22.44;70.09;100303.41;5063382;28;20037;-61
2021/06/22 02:08:32;;;;;;;18.10;10.35;;;;;;;22.43;70.90;100301.72;5063594;28;20079;-61
2021/06/22 02:10:59;;;;;;;16.27;9.88;;;;;;;22.45;70.49;100291.94;5063226;28;20071;-61
2021/06/22 02:13:27;;;;;;;20.17;9.57;;;;;;;22.51;70.39;100304.75;5063459;28;20056;-61
2021/06/22 02:15:54;;;;;;;16.00;10.30;;;;;;;22.52;70.52;100301.16;5063327;28;20040;-61
2021/06/22 02:18:20;;;;;;;18.17;10.43;;;;;;;22.55;70.52;100308.06;5063285;28;20059;-61
2021/06/22 02:20:46;;;;;;;17.17;10.20;;;;;;;22.57;70.33;100299.09;5062964;28;20017;-60
2021/06/22 02:23:12;;;;;;;13.88;9.90;;;;;;;22.64;70.54;100310.13;5063156;28;20053;-61
2021/06/22 02:25:38;;;;;;;16.92;10.07;;;;;;;22.61;70.62;100304.19;5063107;28;20326;-62
2021/06/22 02:28:10;;;;;;;20.63;10.40;;;;;;;22.41;70.55;100266.66;5063151;28;20267;-61
2021/06/22 02:30:37;;;;;;;15.02;9.40;;;;;;;22.74;70.76;100305.13;5063066;28;20047;-62
2021/06/22 02:33:03;;;;;;;14.88;9.50;;;;;;;22.80;70.29;100307.34;5063015;28;20056;-61
2021/06/22 02:35:30;;;;;;;21.45;10.13;;;;;;;22.75;70.46;100297.09;5062837;28;20021;-61
2021/06/22 02:37:57;;;;;;;18.05;10.05;;;;;;;22.90;70.31;100310.28;5057695;28;20064;-61
2021/06/22 02:40:24;;;;;;;15.05;9.02;;;;;;;22.96;69.96;100314.31;5069681;28;20279;-61
2021/06/22 02:42:50;;;;;;;19.63;10.35;;;;;;;23.00;70.19;100308.78;5062949;28;20067;-62
2021/06/22 02:45:17;;;;;;;16.35;9.50;;;;;;;23.05;69.21;100317.25;5062868;28;20051;-61
2021/06/22 02:47:44;;;;;;;21.63;9.88;;;;;;;23.08;69.51;100309.09;5062703;28;20051;-61
2021/06/22 02:50:11;;;;;;;16.48;9.52;;;;;;;23.18;68.89;100319.13;5062633;28;20044;-61
2021/06/22 02:52:38;;;;;;;22.92;9.68;;;;;;;23.21;68.67;100319.78;5062811;28;20370;-60
2021/06/22 02:55:06;;;;;;;13.63;9.75;;;;;;;23.02;67.95;100272.53;5062719;28;20043;-61
2021/06/22 02:57:32;;;;;;;15.77;9.63;;;;;;;23.39;67.87;100314.28;5062758;28;20075;-61
2021/06/22 02:59:58;;;;;;;15.40;10.48;;;;;;;23.41;67.85;100317.66;5062421;28;20045;-61
2021/06/22 03:02:24;;;;;;;19.88;10.20;;;;;;;23.40;67.74;100308.88;5062471;28;20368;-61
2021/06/22 03:04:50;;;;;;;20.25;9.85;;;;;;;23.55;67.69;100317.59;5062520;28;20084;-61
2021/06/22 03:07:16;;;;;;;18.55;10.63;;;;;;;23.61;67.84;100318.97;5062518;28;20032;-61
2021/06/22 03:09:42;;;;;;;19.38;10.02;;;;;;;23.72;68.10;100313.84;5062506;28;20127;-61
2021/06/22 03:12:08;;;;;;;15.50;9.65;;;;;;;23.82;67.64;100315.88;5062407;28;20056;-61
2021/06/22 03:14:34;;;;;;;19.58;9.80;;;;;;;23.84;67.05;100321.91;5062398;28;20055;-61
2021/06/22 03:17:00;;;;;;;22.05;9.82;;;;;;;23.89;67.39;100319.84;5062306;28;20080;-61
2021/06/22 03:19:26;;;;;;;17.63;9.85;;;;;;;23.93;67.22;100313.41;5062264;28;20017;-61
2021/06/22 03:21:52;;;;;;;16.00;9.43;;;;;;;24.01;67.30;100319.00;5062249;28;20049;-61
2021/06/22 03:24:20;;;;;;;20.67;10.90;;;;;;;24.11;67.75;100314.78;5062472;28;20025;-61
2021/06/22 03:26:47;;;;;;;16.55;10.02;;;;;;;24.16;66.61;100314.47;5062301;28;20041;-61
2021/06/22 03:29:14;;;;;;;22.70;10.57;;;;;;;24.15;66.12;100304.81;5062149;28;20258;-61
2021/06/22 03:31:40;;;;;;;19.67;10.02;;;;;;;24.21;65.22;100308.84;5062114;28;20269;-60
2021/06/22 03:34:06;;;;;;;17.85;9.80;;;;;;;24.36;63.32;100313.09;5062167;28;20275;-60
2021/06/22 03:36:32;;;;;;;18.52;10.15;;;;;;;24.50;64.53;100312.16;5062149;28;20044;-60
2021/06/22 03:38:58;;;;;;;16.63;9.65;;;;;;;24.68;62.07;100314.47;5062030;28;20037;-61
2021/06/22 03:41:24;;;;;;;20.83;10.30;;;;;;;24.76;61.46;100310.34;5061988;28;20055;-60
2021/06/22 03:43:50;;;;;;;19.42;9.70;;;;;;;24.79;61.88;100309.28;5061974;28;20053;-60
2021/06/22 03:46:18;;;;;;;20.00;9.57;;;;;;;24.91;62.54;100316.34;5063618;28;20017;-61
2021/06/22 03:48:48;;;;;;;21.15;9.80;;;;;;;24.91;63.12;100305.75;5065952;28;20044;-61
2021/06/22 03:51:14;;;;;;;20.92;9.75;;;;;;;24.97;61.11;100321.22;5066074;28;20055;-61
2021/06/22 03:53:42;;;;;;;18.73;9.48;;;;;;;25.07;59.94;100308.16;5066100;28;20214;-61
2021/06/22 03:56:08;;;;;;;22.75;10.40;;;;;;;25.36;61.27;100315.81;5066068;28;20052;-61
2021/06/22 03:58:34;;;;;;;25.33;10.07;;;;;;;25.52;59.99;100317.34;5065922;28;20048;-61
2021/06/22 04:01:00;;;;;;;19.27;9.32;;;;;;;25.61;60.27;100320.16;5065782;28;20028;-61
2021/06/22 04:03:33;;;;;;;17.65;9.00;;;;;;;25.72;59.81;100321.16;5065935;28;20041;-61
2021/06/22 04:05:59;;;;;;;22.02;10.57;;;;;;;25.47;60.03;100313.22;5065841;28;20341;-61
2021/06/22 04:08:25;;;;;;;20.17;10.38;;;;;;;25.52;59.81;100320.81;5065787;28;20048;-62
2021/06/22 04:10:51;;;;;;;18.73;9.77;;;;;;;25.79;59.37;100330.34;5065581;28;20278;-62
2021/06/22 04:13:17;;;;;;;17.77;9.90;;;;;;;25.86;58.79;100320.94;5065487;28;20039;-61
2021/06/22 04:15:42;;;;;;;23.02;10.73;;;;;;;25.80;59.69;100324.06;5065533;28;20024;-62
2021/06/22 04:18:10;;;;;;;17.08;10.35;;;;;;;25.59;59.48;100271.66;5065346;28;20031;-60
2021/06/22 04:20:37;;;;;;;21.60;11.40;;;;;;;26.01;59.11;100324.31;5065543;28;20049;-62
2021/06/22 04:23:04;;;;;;;18.75;11.10;;;;;;;26.07;59.75;100329.13;5065560;28;20045;-61
2021/06/22 04:25:30;;;;;;;20.73;10.20;;;;;;;26.21;59.50;100325.44;5065431;28;20041;-61
2021/06/22 04:27:58;;;;;;;20.08;9.90;;;;;;;26.18;59.59;100315.00;5065336;28;20055;-61
2021/06/22 04:30:24;;;;;;;17.05;9.82;;;;;;;26.27;60.06;100324.94;5065204;28;20056;-61
2021/06/22 04:32:50;;;;;;;26.17;10.35;;;;;;;26.39;58.04;100315.16;5065311;28;20346;-60
2021/06/22 04:35:16;;;;;;;20.05;11.30;;;;;;;26.46;59.36;100320.84;5065134;28;20013;-61
2021/06/22 04:37:42;;;;;;;15.15;9.63;;;;;;;26.37;58.04;100319.78;5065341;28;20033;-60
2021/06/22 04:40:11;;;;;;;19.15;9.43;;;;;;;26.41;57.82;100315.91;5064871;28;20269;-61
2021/06/22 04:42:37;;;;;;;21.85;9.73;;;;;;;26.24;57.82;100271.22;5065059;28;20044;-60
2021/06/22 04:45:05;;;;;;;18.73;9.00;;;;;;;26.72;57.66;100318.00;5065067;28;20052;-60
2021/06/22 04:47:31;;;;;;;22.02;10.77;;;;;;;26.74;57.87;100324.03;5065099;28;20056;-61
2021/06/22 04:49:58;;;;;;;17.85;8.88;;;;;;;26.92;56.78;100313.75;5064738;28;20051;-61
2021/06/22 04:52:24;;;;;;;18.88;9.45;;;;;;;26.82;56.85;100306.53;5065043;28;20273;-59
2021/06/22 04:54:52;;;;;;;21.42;10.20;;;;;;;26.89;57.51;100312.16;5064889;28;20068;-59
2021/06/22 04:57:20;;;;;;;18.75;9.77;;;;;;;27.04;57.05;100315.41;5068423;28;20042;-60
2021/06/22 04:59:47;;;;;;;18.90;9.18;;;;;;;27.08;56.96;100316.00;5078470;28;20197;-60
2021/06/22 05:02:13;;;;;;;14.43;7.75;;;;;;;27.23;56.20;100311.25;5064950;28;20059;-60
2021/06/22 05:04:39;;;;;;;14.43;7.75;;;;;;;27.29;56.38;100305.44;5064610;28;20048;-60
2021/06/22 05:07:05;;;;;;;13.93;7.85;;;;;;;27.42;54.90;100318.59;5063626;28;20065;-61
2021/06/22 05:09:31;;;;;;;17.83;7.88;;;;;;;27.61;55.25;100316.13;5064423;28;20017;-60
2021/06/22 05:11:57;;;;;;;17.73;7.68;;;;;;;27.54;54.56;100320.25;5064439;28;20051;-60
2021/06/22 05:14:23;;;;;;;9.63;5.00;;;;;;;27.59;51.82;100317.22;5064595;28;20281;-60
2021/06/22 05:16:49;;;;;;;11.23;5.93;;;;;;;27.77;52.90;100328.16;5064478;28;20076;-61
2021/06/22 05:19:18;;;;;;;10.15;4.75;;;;;;;27.87;50.66;100326.41;5064362;28;20056;-60
2021/06/22 05:21:44;;;;;;;13.93;5.57;;;;;;;27.88;50.65;100323.59;5064211;28;20040;-60
2021/06/22 05:24:11;;;;;;;10.15;5.47;;;;;;;28.21;50.58;100323.56;5064380;28;20345;-61
2021/06/22 05:26:37;;;;;;;10.85;5.35;;;;;;;28.20;51.05;100312.06;5064085;28;20060;-61
2021/06/22 05:29:03;;;;;;;11.23;4.80;;;;;;;28.09;48.59;100325.47;5063896;28;20310;-62
2021/06/22 05:31:29;;;;;;;12.18;4.90;;;;;;;28.30;47.83;100329.94;5044104;28;20041;-61
2021/06/22 05:33:56;;;;;;;11.30;4.72;;;;;;;28.36;46.82;100322.25;5044099;28;20055;-62
2021/06/22 05:36:22;;;;;;;11.93;4.80;;;;;;;28.51;46.30;100319.25;5043656;28;20041;-62
2021/06/22 05:38:48;;;;;;;12.10;4.22;;;;;;;28.64;47.10;100324.38;5043899;28;20041;-62
2021/06/22 05:41:14;;;;;;;8.90;4.10;;;;;;;28.71;46.55;100321.03;5061891;28;20048;-62
2021/06/22 05:43:40;;;;;;;8.95;4.63;;;;;;;28.82;47.41;100325.41;5063926;28;20068;-62
2021/06/22 05:46:06;;;;;;;7.07;3.80;;;;;;;28.56;48.43;100325.84;5063912;28;20064;-62
2021/06/22 05:48:32;;;;;;;8.20;3.80;;;;;;;28.70;45.78;100322.03;5063717;28;20032;-61
2021/06/22 05:50:58;;;;;;;8.13;4.65;;;;;;;28.65;48.32;100323.41;5063564;28;20120;-61
2021/06/22 05:53:24;;;;;;;9.95;4.10;;;;;;;28.83;46.82;100320.91;5063830;28;20067;-61
2021/06/22 05:55:49;;;;;;;13.52;4.18;;;;;;;28.89;47.08;100317.72;5063591;28;20024;-61
2021/06/22 05:58:15;;;;;;;9.77;4.15;;;;;;;28.86;46.36;100317.97;5063620;28;20052;-61
2021/06/22 06:00:41;;;;;;;12.48;4.65;;;;;;;28.97;45.88;100320.53;5063332;28;20033;-60
2021/06/22 06:03:07;;;;;;;15.15;4.43;;;;;;;29.01;46.06;100313.94;5063496;28;20009;-61
2021/06/22 06:05:33;;;;;;;8.02;4.45;;;;;;;29.12;46.74;100312.13;5062418;28;20024;-61
2021/06/22 06:07:59;;;;;;;8.63;4.10;;;;;;;29.29;45.74;100319.53;5063420;28;20056;-61
2021/06/22 06:10:25;;;;;;;8.75;4.65;;;;;;;29.15;47.15;100306.56;5062939;28;20025;-62
2021/06/22 06:12:51;;;;;;;7.75;4.43;;;;;;;29.17;45.13;100315.25;5063440;28;20345;-61
2021/06/22 06:15:19;;;;;;;8.48;4.22;;;;;;;29.19;47.35;100313.31;5063095;28;20053;-61
2021/06/22 06:17:45;;;;;;;12.43;5.00;;;;;;;29.02;45.75;100309.47;5062024;28;20044;-61
2021/06/22 06:20:13;;;;;;;13.43;5.03;;;;;;;29.15;44.87;100314.56;5063048;28;20059;-61
2021/06/22 06:22:41;;;;;;;7.43;4.57;;;;;;;29.37;46.01;100314.34;5062991;28;20143;-61
2021/06/22 06:25:08;;;;;;;10.98;4.90;;;;;;;29.34;45.89;100311.94;5062921;28;20048;-60
2021/06/22 06:30:14;;;;;;;14.57;5.35;;;;;;;29.48;45.63;100317.84;5062823;28;20055;-61
2021/06/22 06:32:40;;;;;;;10.63;5.47;;;;;;;29.50;46.46;100305.19;5062694;28;20057;-61
2021/06/22 06:35:07;;;;;;;14.70;6.30;;;;;;;29.47;45.94;100313.50;5062430;28;20094;-60
2021/06/22 06:37:33;;;;;;;15.35;5.68;;;;;;;29.58;47.51;100302.66;5063021;28;20333;-62
2021/06/22 06:39:59;;;;;;;9.48;5.63;;;;;;;29.67;46.26;100304.47;5062551;28;20096;-61
2021/06/22 06:42:25;;;;;;;11.65;5.65;;;;;;;29.70;46.28;100306.88;5062737;28;20025;-60
2021/06/22 06:44:51;;;;;;;13.75;5.15;;;;;;;29.85;45.11;100304.63;5062692;28;20029;-62
2021/06/22 06:47:17;;;;;;;9.60;5.30;;;;;;;29.92;46.12;100316.44;5062692;28;20265;-61
2021/06/22 06:49:43;;;;;;;15.32;5.57;;;;;;;30.01;47.46;100308.56;5061635;28;20095;-62
2021/06/22 06:52:09;;;;;;;11.32;5.35;;;;;;;29.96;45.75;100306.31;5062745;28;20093;-61
2021/06/22 06:54:34;;;;;;;11.20;5.30;;;;;;;29.94;43.84;100300.25;5062693;28;20024;-62
2021/06/22 06:57:01;;;;;;;9.82;5.40;;;;;;;30.16;44.81;100301.78;5062887;28;20095;-61
2021/06/22 06:59:26;;;;;;;11.95;5.55;;;;;;;30.19;45.15;100306.00;5062414;28;20286;-62
2021/06/22 07:01:55;;;;;;;15.18;4.97;;;;;;;30.21;43.24;100306.69;5062544;28;20048;-61
2021/06/22 07:04:21;;;;;;;9.23;4.53;;;;;;;30.23;45.07;100299.34;5061278;28;20067;-62
2021/06/22 07:06:47;;;;;;;13.05;4.72;;;;;;;30.31;44.27;100304.81;5062437;28;20222;-63
2021/06/22 07:09:14;;;;;;;10.63;4.78;;;;;;;30.37;45.00;100285.53;5062470;28;20067;-62
2021/06/22 07:11:40;;;;;;;11.13;5.45;;;;;;;30.36;44.89;100299.88;5042544;28;20057;-60
2021/06/22 07:14:06;;;;;;;11.80;4.80;;;;;;;30.56;43.84;100297.16;5042525;28;20045;-61
2021/06/22 07:16:33;;;;;;;6.90;4.55;;;;;;;30.50;42.45;100297.72;5042408;28;20085;-59
2021/06/22 07:18:59;;;;;;;9.55;4.78;;;;;;;30.79;41.96;100289.56;5042443;28;20068;-59
2021/06/22 07:21:25;;;;;;;7.57;4.22;;;;;;;30.78;43.89;100285.22;5059437;28;20076;-60
2021/06/22 07:23:52;;;;;;;16.33;4.93;;;;;;;30.95;44.15;100286.25;5062266;28;20048;-60
2021/06/22 07:26:18;;;;;;;10.82;4.22;;;;;;;30.79;41.32;100293.09;5062161;28;20052;-60
2021/06/22 07:28:44;;;;;;;9.40;3.80;;;;;;;31.00;42.26;100294.66;5061286;28;20025;-63
2021/06/22 07:31:13;;;;;;;6.15;3.72;;;;;;;30.98;41.90;100292.16;5062234;28;20059;-60
2021/06/22 07:33:39;;;;;;;8.98;3.80;;;;;;;31.04;41.68;100290.72;5061573;28;20051;-61
2021/06/22 07:36:08;;;;;;;7.97;3.55;;;;;;;30.87;40.72;100294.16;5062152;28;20016;-61
2021/06/22 07:38:35;;;;;;;13.73;3.70;;;;;;;30.98;40.83;100289.47;5062182;28;20060;-62
2021/06/22 07:41:01;;;;;;;8.55;3.88;;;;;;;31.03;40.92;100289.03;5061538;28;20160;-61
2021/06/22 07:43:27;;;;;;;14.88;3.70;;;;;;;31.19;41.48;100285.69;5062183;28;20057;-61
2021/06/22 07:45:52;;;;;;;10.85;3.88;;;;;;;31.10;39.95;100295.47;5061853;28;20043;-60
2021/06/22 07:48:19;;;;;;;12.02;4.00;;;;;;;31.20;40.35;100291.88;5061804;28;20021;-60
2021/06/22 07:50:45;;;;;;;12.82;4.10;;;;;;;31.26;39.97;100296.63;5061758;28;20063;-61
2021/06/22 07:53:11;;;;;;;12.50;3.65;;;;;;;31.24;40.92;100295.91;5033588;28;20064;-60
2021/06/22 07:55:37;;;;;;;7.50;3.30;;;;;;;31.27;40.99;100298.28;5061582;28;20016;-60
2021/06/22 07:58:03;;;;;;;9.07;3.70;;;;;;;31.27;40.11;100298.28;5061761;28;20048;-60
2021/06/22 08:00:45;;;;;;;14.95;4.15;;;;;;;31.35;40.73;100303.72;5061955;28;20049;-62
2021/06/22 08:03:12;;;;;;;12.65;3.95;;;;;;;31.38;41.29;100303.41;5061824;28;20255;-61
2021/06/22 08:05:39;;;;;;;8.50;4.20;;;;;;;31.45;39.77;100293.78;5061809;28;20049;-61
2021/06/22 08:08:06;;;;;;;10.32;3.53;;;;;;;31.59;40.91;100294.28;5060575;28;20052;-62
2021/06/22 08:10:32;;;;;;;7.90;3.83;;;;;;;31.59;40.91;100299.63;5061624;28;20055;-63
2021/06/22 08:12:58;;;;;;;10.13;3.47;;;;;;;31.57;41.46;100297.09;5061415;28;20258;-61
2021/06/22 08:15:25;;;;;;;9.50;3.90;;;;;;;31.51;41.32;100292.31;5060309;28;20017;-61
2021/06/22 08:17:51;;;;;;;12.07;3.58;;;;;;;31.71;40.39;100292.19;5061592;28;20052;-61
2021/06/22 08:20:18;;;;;;;8.23;3.60;;;;;;;31.84;40.82;100298.00;5061215;28;20048;-60
2021/06/22 08:22:46;;;;;;;12.98;3.78;;;;;;;31.82;38.75;100289.25;5061066;28;20044;-61
2021/06/22 08:25:12;;;;;;;8.35;3.50;;;;;;;31.73;39.24;100301.75;5058848;28;20067;-62
2021/06/22 08:27:38;;;;;;;11.02;3.72;;;;;;;31.77;38.55;100296.94;5061678;28;20318;-61
2021/06/22 08:30:05;;;;;;;14.02;3.28;;;;;;;31.94;40.15;100300.53;5061744;28;20025;-61
2021/06/22 08:32:31;;;;;;;13.38;4.28;;;;;;;31.82;38.44;100297.28;5063069;28;20337;-60
2021/06/22 08:34:57;;;;;;;11.95;3.45;;;;;;;31.97;40.46;100302.94;5064971;28;20337;-62
2021/06/22 08:37:23;;;;;;;14.38;3.83;;;;;;;32.00;39.78;100302.63;5067895;28;20055;-62
2021/06/22 08:39:49;;;;;;;14.07;3.88;;;;;;;32.04;38.29;100300.44;5081318;28;20071;-62
2021/06/22 08:42:17;;;;;;;5.93;3.50;;;;;;;31.84;39.96;100255.13;5064997;28;20020;-63
2021/06/22 08:44:45;;;;;;;11.77;3.83;;;;;;;32.20;40.24;100292.56;5065032;28;20063;-63
2021/06/22 08:47:20;;;;;;;13.45;3.80;;;;;;;31.93;38.98;100272.91;5065006;28;20044;-63
2021/06/22 08:49:46;;;;;;;10.75;3.85;;;;;;;32.21;39.34;100296.91;5063619;28;20068;-63
2021/06/22 08:52:13;;;;;;;11.05;3.70;;;;;;;32.30;39.15;100287.09;5064704;28;20057;-63
2021/06/22 08:54:39;;;;;;;13.00;3.65;;;;;;;32.21;38.56;100288.03;5064841;28;20056;-62
2021/06/22 08:57:05;;;;;;;13.00;3.65;;;;;;;32.21;38.93;100288.88;5065388;28;20056;-61
2021/06/22 08:59:31;;;;;;;10.80;3.95;;;;;;;32.21;38.54;100288.03;5064616;28;20056;-61
2021/06/22 09:01:57;;;;;;;14.65;4.10;;;;;;;32.31;38.18;100286.91;5064338;28;20025;-62
2021/06/22 09:04:23;;;;;;;13.95;3.95;;;;;;;32.15;37.22;100289.50;5064611;28;20381;-63
2021/06/22 09:06:49;;;;;;;12.88;3.47;;;;;;;32.08;35.92;100286.59;5064393;28;20321;-62
2021/06/22 09:09:14;;;;;;;8.73;3.38;;;;;;;32.34;37.96;100283.09;5064736;28;20021;-62
2021/06/22 09:11:40;;;;;;;9.75;3.45;;;;;;;32.25;38.16;100274.13;5064465;28;20087;-61
2021/06/22 09:14:09;;;;;;;10.80;3.50;;;;;;;32.45;37.97;100268.53;5046702;28;20079;-62
2021/06/22 09:16:37;;;;;;;12.23;3.60;;;;;;;32.55;36.70;100287.19;5064377;28;20051;-63
2021/06/22 09:19:10;;;;;;;10.80;4.32;;;;;;;32.24;36.68;100242.13;5064509;28;20048;-60
2021/06/22 09:21:43;;;;;;;13.05;3.58;;;;;;;32.29;36.89;100280.03;5064153;28;20044;-63
2021/06/22 09:24:17;;;;;;;11.20;3.42;;;;;;;32.25;36.44;100271.44;5063055;28;20071;-61
2021/06/22 09:26:45;;;;;;;10.00;3.80;;;;;;;32.45;37.27;100266.72;5064238;28;20044;-63
2021/06/22 09:29:14;;;;;;;12.50;3.60;;;;;;;32.56;38.76;100273.59;5064152;28;20056;-64
2021/06/22 09:31:52;;;;;;;10.50;3.55;;;;;;;32.69;36.56;100271.34;5063449;28;20055;-63
2021/06/22 09:34:19;;;;;;;9.57;3.20;;;;;;;32.78;36.41;100271.34;5062582;28;20281;-63
2021/06/22 09:36:51;;;;;;;12.60;3.53;;;;;;;32.94;36.67;100266.03;5062713;28;20067;-62
2021/06/22 09:39:18;;;;;;;11.77;3.58;;;;;;;32.95;37.05;100266.88;5062731;28;20045;-62
2021/06/22 09:41:44;;;;;;;9.95;3.70;;;;;;;32.93;36.93;100263.53;5062313;28;20368;-62
2021/06/22 09:44:15;;;;;;;12.98;3.88;;;;;;;32.87;36.65;100251.59;5061860;28;20055;-62
2021/06/22 09:46:45;;;;;;;12.33;3.90;;;;;;;32.65;37.11;100224.38;5074265;28;20360;-62
2021/06/22 09:49:16;;;;;;;14.23;4.15;;;;;;;32.76;35.20;100241.19;5082400;28;20444;-62
2021/06/22 09:51:51;;;;;;;12.88;3.65;;;;;;;32.42;35.58;100258.13;5063601;28;20040;-62
2021/06/22 09:54:25;;;;;;;11.95;3.60;;;;;;;32.34;35.28;100222.25;5062859;28;20060;-60
2021/06/22 09:56:53;;;;;;;16.27;4.20;;;;;;;32.49;36.14;100261.84;5063588;28;20078;-61
2021/06/22 09:59:19;;;;;;;14.02;4.03;;;;;;;32.39;35.51;100261.16;5063424;28;20074;-61
2021/06/22 10:01:45;;;;;;;11.88;4.70;;;;;;;32.41;35.76;100254.63;5063342;28;20345;-61
2021/06/22 10:04:17;;;;;;;13.45;4.40;;;;;;;32.18;35.95;100263.22;5063104;28;20025;-62
2021/06/22 10:06:49;;;;;;;15.30;5.00;;;;;;;32.34;37.57;100261.63;5061526;28;20064;-62
2021/06/22 10:09:24;;;;;;;17.17;4.85;;;;;;;32.43;36.58;100263.34;5064581;28;20067;-63
2021/06/22 10:11:57;;;;;;;17.00;4.78;;;;;;;32.21;36.62;100218.31;5064017;28;20052;-61
2021/06/22 10:14:34;;;;;;;16.65;4.75;;;;;;;32.47;37.85;100218.28;5067608;28;20048;-62
2021/06/22 10:17:03;;;;;;;12.98;4.47;;;;;;;32.49;36.12;100254.63;5059567;28;20033;-61
2021/06/22 10:19:30;;;;;;;13.65;4.38;;;;;;;32.65;37.21;100255.69;5062951;28;20052;-63
2021/06/22 10:21:57;;;;;;;15.35;5.05;;;;;;;32.76;37.48;100266.16;5009784;28;20061;-63
2021/06/22 10:24:24;;;;;;;13.98;4.45;;;;;;;32.76;37.47;100251.91;5048801;28;20342;-63
2021/06/22 10:26:52;;;;;;;12.32;4.15;;;;;;;32.77;36.89;100251.75;5060276;28;20052;-62
2021/06/22 10:29:20;;;;;;;12.43;4.57;;;;;;;32.71;36.47;100239.00;5063130;28;20055;-61
2021/06/22 10:31:48;;;;;;;15.43;4.40;;;;;;;32.44;37.02;100210.56;5063001;28;20052;-62
2021/06/22 10:34:14;;;;;;;12.93;4.50;;;;;;;32.75;37.28;100243.03;5063092;28;20060;-62
2021/06/22 10:36:45;;;;;;;15.35;4.85;;;;;;;32.32;36.46;100207.31;5061987;28;20103;-61
2021/06/22 10:39:19;;;;;;;16.67;4.15;;;;;;;32.51;36.63;100203.53;5063031;28;20074;-62
2021/06/22 10:41:46;;;;;;;20.50;4.53;;;;;;;32.72;36.88;100232.59;5062746;28;20065;-62
2021/06/22 10:44:24;;;;;;;12.30;4.45;;;;;;;32.40;38.24;100241.38;5062621;28;20063;-62
2021/06/22 10:47:15;;;;;;;13.68;4.88;;;;;;;32.60;36.94;100244.63;5062743;28;20044;-62
2021/06/22 10:50:08;;;;;;;11.73;4.07;;;;;;;32.61;38.63;100239.09;5062470;28;20053;-62
2021/06/22 10:52:46;;;;;;;20.77;5.10;;;;;;;32.06;41.01;100240.34;5058922;28;20055;-63
2021/06/22 10:55:45;;;;;;;18.40;4.65;;;;;;;32.13;40.71;100245.94;5059565;28;20052;-63
2021/06/22 10:58:13;;;;;;;17.20;4.22;;;;;;;32.28;40.10;100230.06;5062498;28;20036;-63
2021/06/22 11:00:42;;;;;;;15.60;4.63;;;;;;;32.43;38.12;100233.00;5062518;28;20045;-63
2021/06/22 11:03:09;;;;;;;18.23;4.63;;;;;;;32.34;37.15;100240.19;5062367;28;20093;-62
2021/06/22 11:05:38;;;;;;;19.00;5.45;;;;;;;32.05;37.23;100186.91;5062754;28;20072;-63
2021/06/22 11:08:16;;;;;;;16.13;4.28;;;;;;;32.44;36.83;100229.34;5062460;28;20359;-60
2021/06/22 11:11:08;;;;;;;17.63;4.65;;;;;;;32.49;37.07;100224.28;5061686;28;20055;-62
2021/06/22 11:13:35;;;;;;;12.65;4.20;;;;;;;32.39;38.27;100232.47;5057035;28;20049;-63
2021/06/22 11:16:07;;;;;;;16.55;4.90;;;;;;;32.21;38.66;100180.78;5061886;28;20060;-62
2021/06/22 11:18:51;;;;;;;11.73;4.65;;;;;;;32.45;38.50;100226.47;5061935;28;20048;-62
2021/06/22 11:21:34;;;;;;;18.63;5.30;;;;;;;32.60;38.91;100218.63;5059515;28;20055;-62